Aviation Digital Data Service (ADDS)

Output produced by METARs form (0826 UTC 17 November 2018)
found at http://www.aviationweather.gov/metar/data/
 
WBGB 170800Z VRB03KT 9999 FEW015CB SCT016 BKN150 28/25 Q1008
TAF WBGB 170500Z 1706/1806 32005KT 9999 SCT016 
     TEMPO 1706/1710 33009KT 4000 TSRA FEW015CB
       
WMKB 170800Z 31006KT 250V360 9000 FEW017CB SCT140 BKN280 31/26 Q1006 NOSIG
TAF WMKB 170500Z 1706/1806 23010KT 9000 FEW020 
     TEMPO 1708/1713 7000 FEW017CB 
     BECMG 1710/1712 VRB03KT
       
WMKE 170800Z 10004KT 030V190 9999 FEW015CB SCT017 BKN270 31/26 Q1007
TAF WMKE 170500Z 1706/1806 13005KT 9999 SCT014 SCT150 BKN260 
     PROB30 
     TEMPO 1707/1710 7000 -TSRA FEW010 FEW016CB SCT018
       
TAF WMAP 170500Z 1706/1806 VRB02KT 9999 FEW017CB 
     TEMPO 1708/1712 5000 -TSRA FEW017CB SCT020
       
WBKK 170800Z 12006KT 9999 FEW014 SCT130 BKN270 29/25 Q1009 NOSIG
TAF WBKK 170500Z 1706/1806 26008KT 9999 FEW014 
     TEMPO 1706/1710 28013G28KT 5000 TSRA FEW013 FEW016CB SCT035 
     BECMG 1714/1716 11005KT
       
WMKK 170800Z 17003KT 120V230 9999 FEW017CB BKN140 29/26 Q1007 NOSIG
TAF WMKK 170500Z 1706/1812 18005KT 9999 FEW017CB 
     PROB30 
     TEMPO 1708/1712 4000 TSRA FEW016CB SCT018 
     BECMG 1718/1720 VRB02KT 9000 
     BECMG 1800/1802 19005KT
       
WMKD 170800Z 12005KT 050V190 9999 FEW017CB SCT160 BKN280 32/27 Q1008 NOSIG
WBGG 170800Z VRB03KT 9999 -SHRA SCT020 BKN150 28/26 Q1007 NOSIG
TAF WBGG 170500Z 1706/1806 34005KT 9999 SCT020 
     TEMPO 1706/1710 3000 TSRA FEW015CB
       
WBKL 170800Z VRB01KT 9999 FEW014 BKN130 BKN290 30/25 Q1009
TAF WBKL 170500Z 1706/1806 VRB03KT 9999 FEW012 
     TEMPO 1706/1710 5000 RA SCT010 FEW013CB SCT030
       
WMKL 170800Z 22004KT 140V300 9999 FEW022 BKN280 31/25 Q1007
TAF WMKL 170500Z 1706/1806 22006KT 9999 FEW022 SCT140 BKN270 
     BECMG 1711/1713 VRB03KT
       
WMKM 170800Z VRB02KT 9999 FEW017CB SCT020 BKN270 31/26 Q1008 RETS
TAF WMKM 170500Z 1706/1806 03005KT 9999 FEW017CB 
     TEMPO 1706/1710 16008KT 4000 TSRA FEW016CB SCT018 
     BECMG 1712/1713 VRB02KT FEW020
       
WBGR 170800Z 26007KT 210V320 9999 SCT014 FEW015CB BKN150 29/25 Q1009
TAF WBGR 170500Z 1706/1806 09005KT 9999 SCT014 
     TEMPO 1707/1711 4000 TSRA FEW015CB
       
WMKP 170800Z 21006KT 170V250 8000 FEW020 SCT140 BKN280 32/25 Q1007 NOSIG
TAF WMKP 170500Z 1706/1806 22010KT 9000 FEW020 SCT140 BKN270 
     BECMG 1712/1714 VRB03KT 
     TEMPO 1717/1721 5000 TSRA FEW010 FEW017CB SCT023
       
TAF WMBT 170500Z 1706/1806 VRB05KT 9999 FEW019 
     TEMPO 1706/1710 7000 -TSRA FEW017CB
       
WBKS 170800Z 05011KT 020V080 9999 FEW016 FEW017CB BKN300 30/25 Q1008
TAF WBKS 170500Z 1706/1806 04008KT 9999 FEW015 
     TEMPO 1710/1714 5000 TSRA FEW010 FEW016CB SCT035
       
WBGS 170800Z 07004KT 020V110 9999 SCT018 BKN150 30/25 Q1007
TAF WBGS 170500Z 1706/1806 VRB03KT 9999 SCT018 
     TEMPO 1706/1710 3000 TSRA FEW015CB
       
WMSA 170800Z 18009KT 150V230 9000 TS FEW017CB SCT140 BKN280 32/25 Q1007
TAF WMSA 170500Z 1706/1806 VRB02KT 9000 FEW018 
     TEMPO 1707/1711 16008KT 4000 TSRA FEW016CB SCT018 
     BECMG 1712/1714 VRB03KT 8000 FEW017CB
       
WMKA 170800Z 26005KT 210V330 9999 FEW020 BKN280 33/28 Q1007
TAF WMKA 170500Z 1706/1806 24006KT 9999 FEW020 SCT140 BKN300 
     TEMPO 1708/1712 6000 -TSRA FEW010 FEW017CB SCT023 
     BECMG 1712/1714 VRB03KT FEW030
       
WMKI 170800Z 23009KT 200V260 9999 FEW017CB BKN300 33/24 Q1007
TAF WMKI 170500Z 1706/1806 04005KT 9999 FEW020
       
WMKJ 170800Z VRB05KT 9999 FEW018 BKN130 31/26 Q1008
TAF WMKJ 170500Z 1706/1806 18005KT 9999 FEW017CB 
     BECMG 1712/1714 VRB02KT FEW018 
     BECMG 1719/1720 3000 BR FEW008 
     BECMG 1800/1801 9000 NSW FEW017CB
       
WMKC 170800Z 07007KT 050V110 9999 FEW018 BKN140 30/26 Q1007
TAF WMKC 170500Z 1706/1806 09007KT 9999 FEW018 BKN280 
     BECMG 1718/1720 VRB03KT
       
WMKN 170800Z VRB05KT 9999 FEW016CB SCT018 BKN300 31/26 Q1008
TAF WMKN 170500Z 1706/1806 VRB04KT 9999 FEW022 SCT150 BKN300
       
WBKW 170800Z 13004KT 060V170 9999 FEW017 BKN280 30/25 Q1007 RETS
TAF WBKW 170500Z 1706/1806 14006KT 9999 FEW017 
     TEMPO 1710/1713 5000 RA FEW010 FEW016CB SCT030